Terminal Aerodrome Forecast
Issued by NWS Boise, ID

Home | Current Version | Previous Version | Text Only | Print | Product List | Glossary On
Versions: 1 2 3 4 5 6 7 8 9 10 11 12 13 14 15 16 17 18 19 20 21 22 23 24 25 26 27 28 29 30
000
FTUS45 KBOI 041017 AAC
TAFBOI
TAF AMD
KBOI 041017Z 0410/0506 33011KT P6SM -SHRA SCT080 OVC150
      TEMPO 0410/0411 03015G25KT 6SM -TSRA FEW030CB BKN080
     FM041300 02008KT P6SM BKN100
     FM041500 31010KT P6SM FEW120
     FM050300 VRB10G20KT P6SM VCSH OVC100=

USA.gov is the U.S. government's official web portal to all federal, state and local government web resources and services.